메인 페이지
METAR-TAF:

METAR-TAF

공항 :

아르한겔스크, 러시아

위도: 64-30N, 경도: 040-44E, 고도: 13m

현재 날씨관측

예보는 39분 전, 23:30시(UTC)에 발표되었습니다.
8kt
온도 -2°C
습도 93%
기압 1012 hPa
시정 10km 이상
고도 400ft 상공 흐림

METAR: ULAA 232330Z 26004MPS 9999 OVC004 M02/M03 Q1012 R26/550237 NOSIG RMK QBB140 QFE757/1010

시각: 03:09 (00:09 UTC)

예보

예보는 1 시간 12분 전, 22:57시(UTC)에 발표되었습니다.
예보 대상 시간: 24일 00시부터 24일 24시까지 (UTC)
10kt
시정: 6000m
고도 500ft 상공 구름 많음
일시적
24일 00시부터 24일 04시까지 (UTC)
6kt, 순간 최대 풍속 16kt
시정: 3100m
고도 300ft 상공 구름 많음
고도 1100ft 상공 구름 많음, 적란운.
약한소낙눈, 박무
전환 중
24일 04시부터 24일 06시까지 (UTC)
고도 1100ft 상공 구름 많음
일시적
24일 06시부터 24일 19시까지 (UTC)
서남서6kt, 순간 최대 풍속 16kt
시정: 3100m
고도 1000ft 상공 구름 많음, 적란운.
약한소낙눈
일시적
24일 19시부터 24일 24시까지 (UTC)
남서10kt, 순간 최대 풍속 19kt
시정: 1500m
고도 600ft 상공 구름 많음
고도 1100ft 상공 구름 많음, 적란운.
소낙눈

TAF: ULAA 232257Z 2400/2424 27005MPS 6000 BKN005 TEMPO 2400/2404 28003G08MPS 3100 -SHSN BR BKN003 BKN011CB BECMG 2404/2406 BKN011 TEMPO 2406/2419 24003G08MPS 3100 -SHSN BKN010CB TEMPO 2419/2424 22005G10MPS 1500 SHSN BKN006 BKN011CB

4,000개 이상의 공항 관측 자료 및 예보 (METAR 및 TAF 보고).

지도상에서 검색 가능한 기상관측소가 노란 점과 빨간 점으로 표시되어 있습니다.

기상관측소 명을 보려면 표시 위로 마우스를 이동하세요.

날씨 관측과 예보를 보려면 클릭하세요.

지도 변경 : 확대하려면 엑스 표시가 있는 녹색 버튼, 축소하려면 빼기 표시가 있는 녹색 버튼, 다음 페이지의 지도를 보려면 녹색 화살표를 클릭하세요.


METAR-TAF: